Time;durP1;ratioP1;P1;durP2;ratioP2;P2;SDS_P1;SDS_P2;PMS_P1;PMS_P2;Temp;Humidity;BMP_temperature;BMP_pressure;BME280_temperature;BME280_humidity;BME280_pressure;Samples;Min_cycle;Max_cycle;Signal;HPM_P1;HPM_P2
2023/05/25 00:01:47;;;;;;;;;12.25;12.25;;;;;18.42;37.67;101742.22;5020056;28;46182;-64
2023/05/25 00:04:15;;;;;;;;;13.50;12.75;;;;;18.32;37.05;101724.81;5020879;28;46978;-64
2023/05/25 00:06:41;;;;;;;;;14.50;13.75;;;;;18.36;37.65;101734.44;5021366;28;45182;-64
2023/05/25 00:09:06;;;;;;;;;14.25;14.25;;;;;18.35;37.44;101735.34;5019593;28;45511;-64
2023/05/25 00:11:32;;;;;;;;;13.00;12.50;;;;;18.33;37.58;101729.22;5020886;28;45417;-64
2023/05/25 00:13:57;;;;;;;;;9.75;9.75;;;;;18.29;37.50;101732.91;5020697;28;46174;-64
2023/05/25 00:16:23;;;;;;;;;14.25;13.25;;;;;18.27;37.35;101732.06;5021250;28;45230;-64
2023/05/25 00:18:48;;;;;;;;;12.00;11.50;;;;;18.25;37.73;101733.88;5020916;28;45301;-64
2023/05/25 00:21:14;;;;;;;;;15.00;12.75;;;;;18.23;37.53;101727.75;5024559;28;45300;-64
2023/05/25 00:23:41;;;;;;;;;15.25;12.25;;;;;18.19;37.72;101725.19;5022080;28;45319;-64
2023/05/25 00:26:06;;;;;;;;;15.50;12.75;;;;;18.17;37.60;101731.47;5020408;28;45378;-64
2023/05/25 00:28:31;;;;;;;;;12.25;11.00;;;;;18.11;37.66;101724.56;5020838;28;45384;-64
2023/05/25 00:30:57;;;;;;;;;13.00;13.00;;;;;18.10;37.69;101721.94;5020774;28;45443;-64
2023/05/25 00:33:22;;;;;;;;;14.50;13.50;;;;;18.07;37.72;101719.38;5020457;28;45385;-64
2023/05/25 00:35:48;;;;;;;;;16.00;14.50;;;;;18.03;37.86;101722.09;5019566;28;45311;-64
2023/05/25 00:38:15;;;;;;;;;16.75;12.75;;;;;18.02;37.82;101727.47;5020674;28;45256;-64
2023/05/25 00:40:40;;;;;;;;;16.25;12.75;;;;;17.97;37.86;101722.28;5020355;28;45466;-64
2023/05/25 00:43:07;;;;;;;;;15.00;12.75;;;;;17.94;38.02;101725.06;5020172;28;46045;-64
2023/05/25 00:45:33;;;;;;;;;17.50;14.25;;;;;17.89;37.74;101726.09;5020581;28;45253;-64
2023/05/25 00:47:59;;;;;;;;;11.75;11.25;;;;;17.85;37.93;101725.31;5020483;28;45838;-64
2023/05/25 00:50:45;;;;;;;;;14.00;13.25;;;;;17.84;37.98;101732.38;5020472;28;45506;-64
2023/05/25 00:53:12;;;;;;;;;14.00;13.50;;;;;17.80;37.92;101725.41;5019481;28;46369;-64
2023/05/25 00:55:52;;;;;;;;;13.75;13.75;;;;;17.77;37.94;101728.16;5018598;28;45542;-64
2023/05/25 00:58:20;;;;;;;;;15.50;13.25;;;;;17.71;38.10;101729.22;5020634;28;45166;-64
2023/05/25 01:00:49;;;;;;;;;14.00;13.00;;;;;17.68;38.08;101723.09;5020244;28;45547;-64
2023/05/25 01:03:20;;;;;;;;;16.00;14.00;;;;;17.63;38.14;101719.72;5018894;28;46106;-64
2023/05/25 01:05:47;;;;;;;;;13.50;11.00;;;;;17.59;38.19;101724.25;5018769;28;45412;-64
2023/05/25 01:08:16;;;;;;;;;17.50;13.50;;;;;17.57;38.28;101719.88;5020316;28;45316;-64
2023/05/25 01:10:42;;;;;;;;;11.75;10.25;;;;;17.52;38.05;101718.22;5018370;28;45304;-64
2023/05/25 01:13:08;;;;;;;;;21.25;14.75;;;;;17.49;38.35;101718.31;5019983;28;45419;-64
2023/05/25 01:15:36;;;;;;;;;14.25;13.00;;;;;17.44;38.63;101716.69;5019792;28;45375;-64
2023/05/25 01:18:02;;;;;;;;;12.00;11.50;;;;;17.41;38.02;101712.34;5020370;28;45321;-63
2023/05/25 01:20:29;;;;;;;;;19.00;16.50;;;;;17.35;38.39;101718.69;5019806;28;45591;-64
2023/05/25 01:23:00;;;;;;;;;13.50;12.25;;;;;17.35;38.54;101720.47;5024888;28;45377;-64
2023/05/25 01:25:57;;;;;;;;;13.75;13.00;;;;;17.30;38.61;101722.41;5019519;28;45518;-64
2023/05/25 01:28:28;;;;;;;;;18.50;16.25;;;;;17.25;38.75;101725.16;5020054;28;45324;-63
2023/05/25 01:30:55;;;;;;;;;16.25;14.00;;;;;17.22;38.49;101726.13;5019969;28;45315;-64
2023/05/25 01:33:22;;;;;;;;;17.50;11.00;;;;;17.16;38.54;101723.63;5019537;28;45409;-64
2023/05/25 01:35:49;;;;;;;;;13.25;12.75;;;;;17.16;38.60;101720.97;5019820;28;45350;-63
2023/05/25 01:38:16;;;;;;;;;18.75;14.75;;;;;17.11;38.51;101720.22;5019767;28;45278;-64
2023/05/25 01:40:41;;;;;;;;;13.75;12.50;;;;;17.11;38.72;101722.88;5019550;28;45368;-64
2023/05/25 01:43:07;;;;;;;;;14.50;13.25;;;;;17.05;38.68;101723.88;5019393;28;45226;-63
2023/05/25 01:45:33;;;;;;;;;12.25;11.25;;;;;17.05;38.79;101726.53;5019826;28;45248;-63
2023/05/25 01:48:18;;;;;;;;;15.50;12.50;;;;;17.02;38.68;101726.63;5019682;28;45400;-64
2023/05/25 01:51:14;;;;;;;;;13.00;12.00;;;;;16.98;38.74;101735.59;5019658;28;45321;-63
2023/05/25 01:53:44;;;;;;;;;14.75;12.50;;;;;16.93;38.77;101733.94;5019622;28;46225;-63
2023/05/25 01:56:13;;;;;;;;;14.50;13.75;;;;;16.92;38.88;101740.16;5017766;28;45297;-64
2023/05/25 01:58:41;;;;;;;;;15.75;14.25;;;;;16.89;38.80;101735.78;5019684;28;45346;-63
2023/05/25 02:01:08;;;;;;;;;17.75;14.00;;;;;16.87;39.23;101743.78;5019546;28;45282;-64
2023/05/25 02:03:35;;;;;;;;;22.25;18.25;;;;;16.88;39.30;101752.63;5019878;28;47134;-64
2023/05/25 02:06:00;;;;;;;;;12.50;11.50;;;;;16.84;39.12;101740.34;5022968;28;45268;-64
2023/05/25 02:08:26;;;;;;;;;13.75;12.50;;;;;16.83;39.24;101742.13;5023078;28;45953;-64
2023/05/25 02:10:51;;;;;;;;;17.50;14.00;;;;;16.80;38.99;101738.66;5022596;28;45262;-64
2023/05/25 02:13:16;;;;;;;;;17.75;14.25;;;;;16.78;39.08;101736.06;5022514;28;47026;-64
2023/05/25 02:15:42;;;;;;;;;15.00;13.50;;;;;16.74;39.50;101740.56;5023003;28;45225;-64
2023/05/25 02:18:07;;;;;;;;;14.50;14.50;;;;;16.69;39.39;101742.47;5023050;28;45314;-64
2023/05/25 02:20:34;;;;;;;;;21.25;16.75;;;;;16.64;39.28;101739.06;5022653;28;45332;-64
2023/05/25 02:23:00;;;;;;;;;15.00;13.50;;;;;16.62;39.26;101738.19;5028113;28;46225;-64
2023/05/25 02:25:25;;;;;;;;;17.00;14.25;;;;;16.62;39.68;101740.00;5022427;28;45309;-64
2023/05/25 02:27:51;;;;;;;;;18.75;16.75;;;;;16.59;39.40;101738.28;5022825;28;45375;-64
2023/05/25 02:30:16;;;;;;;;;17.50;16.00;;;;;16.55;39.36;101741.91;5022467;28;45487;-64
2023/05/25 02:32:42;;;;;;;;;16.00;13.25;;;;;16.51;39.60;101741.09;5021099;28;46352;-64
2023/05/25 02:35:07;;;;;;;;;17.75;16.75;;;;;16.50;39.49;101744.69;5021165;28;45345;-64
2023/05/25 02:37:33;;;;;;;;;16.50;14.50;;;;;16.48;39.42;101746.47;5022847;28;45281;-64
2023/05/25 02:39:58;;;;;;;;;17.75;15.75;;;;;16.44;39.67;101750.13;5022093;28;45479;-64
2023/05/25 02:42:23;;;;;;;;;19.75;16.75;;;;;16.41;39.65;101751.06;5022553;28;45347;-64
2023/05/25 02:44:49;;;;;;;;;22.75;16.00;;;;;16.35;39.53;101745.91;5022328;28;45236;-65
2023/05/25 02:47:15;;;;;;;;;19.50;18.50;;;;;16.36;39.88;101755.59;5021251;28;45326;-64
2023/05/25 02:49:41;;;;;;;;;17.00;14.00;;;;;16.33;39.57;101758.31;5022346;28;45183;-64
2023/05/25 02:52:06;;;;;;;;;16.50;16.50;;;;;16.30;40.06;101755.75;5022267;28;46079;-64
2023/05/25 02:54:31;;;;;;;;;16.25;14.50;;;;;16.28;39.52;101760.19;5020745;28;45266;-64
2023/05/25 02:56:57;;;;;;;;;12.25;11.75;;;;;16.24;39.66;101759.38;5022252;28;45276;-64
2023/05/25 02:59:23;;;;;;;;;19.50;17.75;;;;;16.19;40.06;101755.97;5020842;28;45187;-64
2023/05/25 03:01:49;;;;;;;;;18.50;15.25;;;;;16.19;39.65;101758.63;5021980;28;45428;-64
2023/05/25 03:04:15;;;;;;;;;13.50;12.75;;;;;16.17;39.76;101768.38;5021893;28;45335;-65
2023/05/25 03:06:40;;;;;;;;;15.00;13.25;;;;;16.15;39.89;101769.31;5022414;28;45250;-64
2023/05/25 03:09:06;;;;;;;;;20.25;14.00;;;;;16.13;40.00;101772.00;5020494;28;45333;-65
2023/05/25 03:11:31;;;;;;;;;18.75;12.25;;;;;16.11;40.29;101775.59;5020542;28;46790;-65
2023/05/25 03:13:56;;;;;;;;;14.50;14.00;;;;;16.09;40.36;101776.50;5021629;28;45468;-64
2023/05/25 03:16:22;;;;;;;;;17.25;15.50;;;;;16.08;40.39;101768.56;5021709;28;45321;-64
2023/05/25 03:18:47;;;;;;;;;14.50;14.50;;;;;16.04;39.92;101778.38;5021760;28;45543;-64
2023/05/25 03:21:13;;;;;;;;;14.25;13.75;;;;;15.97;40.09;101767.94;5024246;28;45373;-65
2023/05/25 03:23:38;;;;;;;;;20.50;14.25;;;;;15.97;40.12;101773.22;5023770;28;45400;-64
2023/05/25 03:26:03;;;;;;;;;14.25;13.25;;;;;15.96;40.15;101782.06;5021652;28;45757;-64
2023/05/25 03:28:29;;;;;;;;;14.50;14.00;;;;;15.90;40.25;101776.00;5021701;28;45609;-64
2023/05/25 03:30:55;;;;;;;;;13.25;11.75;;;;;15.85;40.19;101767.28;5021832;28;46212;-64
2023/05/25 03:33:20;;;;;;;;;18.25;14.50;;;;;15.89;40.23;101784.84;5021622;28;45249;-64
2023/05/25 03:35:46;;;;;;;;;17.00;14.00;;;;;15.89;40.57;101786.63;5021709;28;45430;-64
2023/05/25 03:38:11;;;;;;;;;19.00;15.25;;;;;15.86;40.12;101792.88;5020177;28;45452;-64
2023/05/25 03:40:36;;;;;;;;;44.00;36.25;;;;;15.86;40.05;101791.97;5019925;28;46789;-64
2023/05/25 03:43:01;;;;;;;;;15.50;15.50;;;;;15.84;40.07;101783.22;5021401;28;45313;-64
2023/05/25 03:45:27;;;;;;;;;16.25;13.75;;;;;15.83;40.49;101797.34;5021626;28;45253;-64
2023/05/25 03:47:52;;;;;;;;;15.50;13.00;;;;;15.80;40.27;101792.06;5021354;28;45465;-64
2023/05/25 03:50:17;;;;;;;;;18.00;14.25;;;;;15.76;40.57;101792.13;5021660;28;45242;-65
2023/05/25 03:52:43;;;;;;;;;16.50;15.50;;;;;15.75;40.67;101792.19;5019991;28;45266;-64
2023/05/25 03:55:08;;;;;;;;;15.00;15.00;;;;;15.72;40.55;101794.88;5021311;28;45490;-65
2023/05/25 03:57:34;;;;;;;;;19.25;14.75;;;;;15.65;40.43;101794.13;5021204;28;45261;-64
2023/05/25 03:59:59;;;;;;;;;12.50;11.75;;;;;15.63;40.54;101793.25;5021120;28;45939;-65
2023/05/25 04:02:25;;;;;;;;;17.25;15.50;;;;;15.60;40.67;101796.84;5021199;28;45296;-64
2023/05/25 04:04:52;;;;;;;;;17.00;13.00;;;;;15.55;40.48;101793.41;5021604;28;45257;-65
2023/05/25 04:07:18;;;;;;;;;13.00;11.00;;;;;15.55;40.47;101790.75;5021344;28;45543;-64
2023/05/25 04:09:44;;;;;;;;;17.25;14.00;;;;;15.54;40.89;101801.41;5020728;28;45403;-64
2023/05/25 04:12:09;;;;;;;;;17.00;15.25;;;;;15.51;41.03;101797.03;5021142;28;45232;-65
2023/05/25 04:14:35;;;;;;;;;16.50;14.25;;;;;15.49;40.71;101793.53;5021027;28;45171;-65
2023/05/25 04:17:00;;;;;;;;;14.00;13.00;;;;;15.47;40.89;101790.03;5021040;28;45248;-64
2023/05/25 04:19:25;;;;;;;;;20.00;16.75;;;;;15.43;41.08;101793.63;5019505;28;47046;-64
2023/05/25 04:21:51;;;;;;;;;17.50;14.00;;;;;15.40;40.52;101794.56;5020634;28;45488;-64
2023/05/25 04:24:16;;;;;;;;;19.25;18.00;;;;;15.39;40.96;101806.03;5020896;28;45302;-65
2023/05/25 04:26:42;;;;;;;;;15.25;12.25;;;;;15.37;41.01;101793.72;5018337;28;45348;-65
2023/05/25 04:29:08;;;;;;;;;13.50;12.00;;;;;15.35;40.98;101807.00;5020685;28;46232;-64
2023/05/25 04:31:34;;;;;;;;;16.50;14.00;;;;;15.32;41.00;101801.78;5019402;28;45375;-64
2023/05/25 04:34:01;;;;;;;;;13.50;12.50;;;;;15.31;41.13;101805.31;5021001;28;45327;-65
2023/05/25 04:36:26;;;;;;;;;13.25;11.00;;;;;15.27;40.90;101801.84;5020683;28;45574;-65
2023/05/25 04:38:54;;;;;;;;;13.00;12.75;;;;;15.25;41.04;101800.97;5019022;28;46068;-64
2023/05/25 04:41:19;;;;;;;;;20.00;14.50;;;;;15.26;41.14;101809.81;5020351;28;45270;-65
2023/05/25 04:43:44;;;;;;;;;19.25;16.00;;;;;15.25;41.12;101806.28;5020744;28;45275;-64
2023/05/25 04:46:12;;;;;;;;;16.75;12.75;;;;;15.23;41.11;101813.41;5020490;28;45383;-65
2023/05/25 04:48:38;;;;;;;;;12.50;11.50;;;;;15.22;40.97;101819.59;5019242;28;47480;-64
2023/05/25 04:51:05;;;;;;;;;14.00;12.25;;;;;15.20;41.01;101815.22;5020304;28;45277;-64
2023/05/25 04:53:31;;;;;;;;;20.00;20.00;;;;;15.21;41.21;101828.44;5020430;28;45384;-64
2023/05/25 04:55:56;;;;;;;;;16.00;14.00;;;;;15.20;41.34;101817.88;5019879;28;45526;-64
2023/05/25 04:58:21;;;;;;;;;16.50;13.25;;;;;15.14;41.64;101810.88;5020454;28;46145;-64
2023/05/25 05:00:47;;;;;;;;;16.25;13.25;;;;;15.19;41.54;101811.69;5020311;28;45273;-64
2023/05/25 05:03:12;;;;;;;;;15.75;15.50;;;;;15.18;41.43;101817.91;5020584;28;45337;-64
2023/05/25 05:05:38;;;;;;;;;16.50;13.25;;;;;15.17;41.15;101810.84;5018973;28;45274;-64
2023/05/25 05:08:03;;;;;;;;;14.75;13.50;;;;;15.17;41.63;101824.09;5019171;28;47062;-65
2023/05/25 05:10:29;;;;;;;;;15.25;12.75;;;;;15.17;41.83;101818.78;5019789;28;45341;-65
2023/05/25 05:12:54;;;;;;;;;19.00;14.25;;;;;15.15;41.85;101825.88;5020266;28;45138;-65
2023/05/25 05:15:20;;;;;;;;;20.25;17.00;;;;;15.16;41.48;101835.56;5019358;28;45270;-65
2023/05/25 05:17:45;;;;;;;;;13.25;12.25;;;;;15.17;41.79;101833.78;5019619;28;45472;-64
2023/05/25 05:20:11;;;;;;;;;15.00;15.00;;;;;15.14;41.56;101839.16;5018633;28;45257;-65
2023/05/25 05:22:36;;;;;;;;;16.75;14.00;;;;;15.14;41.71;101845.31;5025632;28;45154;-66
2023/05/25 05:25:02;;;;;;;;;16.25;12.25;;;;;15.14;41.28;101828.56;5019591;28;45555;-64
2023/05/25 05:27:27;;;;;;;;;20.00;15.50;;;;;15.17;41.74;101839.06;5020056;28;45291;-65
2023/05/25 05:29:53;;;;;;;;;19.00;17.75;;;;;15.09;41.70;101829.50;5019860;28;45281;-64
2023/05/25 05:32:18;;;;;;;;;19.50;14.25;;;;;15.17;42.02;101839.06;5019080;28;45266;-65
2023/05/25 05:34:43;;;;;;;;;15.75;15.25;;;;;15.13;41.41;101835.59;5018596;28;45399;-64
2023/05/25 05:37:09;;;;;;;;;18.50;14.00;;;;;15.13;41.68;101846.19;5018824;28;46008;-64
2023/05/25 05:39:34;;;;;;;;;14.00;13.25;;;;;15.13;42.05;101854.13;5025802;28;48056;-64
2023/05/25 05:42:00;;;;;;;;;17.00;14.00;;;;;15.14;41.72;101845.31;5026539;28;45318;-64
2023/05/25 05:44:25;;;;;;;;;15.75;10.00;;;;;15.13;41.77;101848.84;5026178;28;45546;-64
2023/05/25 05:46:51;;;;;;;;;12.00;12.00;;;;;15.14;42.02;101860.31;5026357;28;46085;-65
2023/05/25 05:49:16;;;;;;;;;16.75;14.75;;;;;15.08;41.84;101856.88;5026288;28;45344;-65
2023/05/25 05:51:41;;;;;;;;;12.50;11.25;;;;;15.08;41.98;101863.91;5024790;28;45410;-65
2023/05/25 05:54:07;;;;;;;;;15.50;13.00;;;;;15.13;41.64;101864.72;5026115;28;45574;-65
2023/05/25 05:56:32;;;;;;;;;17.50;13.75;;;;;15.12;42.31;101863.00;5026209;28;46322;-65
2023/05/25 05:58:57;;;;;;;;;13.75;13.25;;;;;15.11;41.89;101866.53;5025972;28;45258;-65
2023/05/25 06:01:23;;;;;;;;;13.25;12.25;;;;;15.13;41.98;101872.66;5026415;28;45311;-65
2023/05/25 06:03:48;;;;;;;;;18.75;16.50;;;;;15.13;41.89;101875.31;5025963;28;45585;-65
2023/05/25 06:06:14;;;;;;;;;16.25;15.00;;;;;15.15;42.40;101884.13;5026264;28;45274;-65
2023/05/25 06:08:42;;;;;;;;;14.50;13.50;;;;;15.16;42.34;101877.94;5025951;28;45235;-65
2023/05/25 06:11:07;;;;;;;;;14.25;14.25;;;;;15.16;41.85;101874.44;5026333;28;45282;-65
2023/05/25 06:13:33;;;;;;;;;15.75;13.25;;;;;15.17;42.08;101871.75;5025715;28;45143;-65
2023/05/25 06:15:58;;;;;;;;;16.00;13.50;;;;;15.18;41.87;101877.91;5025950;28;51402;-65
2023/05/25 06:18:23;;;;;;;;;13.00;11.00;;;;;15.18;42.00;101877.91;5025761;28;45406;-65
2023/05/25 06:20:49;;;;;;;;;22.75;14.50;;;;;15.19;42.34;101885.81;5026644;28;45292;-65
2023/05/25 06:23:14;;;;;;;;;14.00;12.75;;;;;15.19;42.26;101880.53;5030454;28;45400;-65
2023/05/25 06:25:40;;;;;;;;;19.25;12.25;;;;;15.22;42.35;101888.44;5025466;28;45944;-65
2023/05/25 06:28:05;;;;;;;;;15.00;14.00;;;;;15.22;42.67;101896.38;5025762;28;45368;-65
2023/05/25 06:30:31;;;;;;;;;15.75;13.75;;;;;15.22;42.45;101895.47;5026173;28;45436;-65
2023/05/25 06:32:56;;;;;;;;;13.50;11.50;;;;;15.24;42.22;101897.25;5025619;28;45418;-65
2023/05/25 06:35:22;;;;;;;;;14.25;12.75;;;;;15.26;42.31;101903.38;5025936;28;45339;-65
2023/05/25 06:37:48;;;;;;;;;14.75;12.00;;;;;15.29;41.89;101889.19;5025810;28;45401;-64
2023/05/25 06:40:15;;;;;;;;;13.25;12.75;;;;;15.31;42.11;101892.72;5024263;28;45303;-64
2023/05/25 06:42:40;;;;;;;;;13.00;12.00;;;;;15.33;42.10;101890.88;5025481;28;45178;-64
2023/05/25 06:45:07;;;;;;;;;14.75;12.00;;;;;15.35;42.20;101890.91;5025665;28;46047;-65
2023/05/25 06:47:32;;;;;;;;;16.25;13.75;;;;;15.37;42.21;101884.66;5024281;28;45273;-64
2023/05/25 06:49:58;;;;;;;;;9.75;8.25;;;;;15.40;42.29;101886.41;5021618;28;45775;-64
2023/05/25 06:52:23;;;;;;;;;13.50;10.50;;;;;15.40;42.25;101883.75;5022257;28;45558;-64
2023/05/25 06:54:49;;;;;;;;;16.25;12.75;;;;;15.46;42.01;101888.06;5022006;28;46095;-64
2023/05/25 06:57:14;;;;;;;;;16.25;12.50;;;;;15.47;42.09;101890.69;5022141;28;45351;-64
2023/05/25 06:59:40;;;;;;;;;11.00;11.00;;;;;15.49;42.20;101886.22;5022493;28;45300;-64
2023/05/25 07:02:05;;;;;;;;;12.00;11.75;;;;;15.51;42.50;101883.53;5022214;28;45305;-64
2023/05/25 07:04:31;;;;;;;;;15.50;13.50;;;;;15.55;42.36;101894.06;5022285;28;45276;-65
2023/05/25 07:06:57;;;;;;;;;17.00;13.25;;;;;15.57;42.40;101880.78;5021975;28;45307;-64
2023/05/25 07:09:22;;;;;;;;;12.25;12.00;;;;;15.61;42.56;101882.53;5022100;28;45388;-64
2023/05/25 07:11:48;;;;;;;;;14.00;12.50;;;;;15.62;42.59;101878.09;5020609;28;45950;-64
2023/05/25 07:14:13;;;;;;;;;14.50;12.25;;;;;15.66;42.13;101880.66;5021906;28;45320;-64
2023/05/25 07:16:38;;;;;;;;;12.75;10.50;;;;;15.67;42.45;101881.53;5022178;28;45561;-64
2023/05/25 07:19:04;;;;;;;;;13.75;11.25;;;;;15.74;42.25;101894.63;5022035;28;45226;-65
2023/05/25 07:21:32;;;;;;;;;12.75;11.75;;;;;15.79;42.34;101891.91;5027368;28;45170;-64
2023/05/25 07:23:58;;;;;;;;;9.75;9.75;;;;;15.81;42.25;101887.47;5021663;28;46019;-64
2023/05/25 07:26:24;;;;;;;;;13.25;12.00;;;;;15.85;42.55;101890.97;5021448;28;45225;-64
2023/05/25 07:28:50;;;;;;;;;7.00;4.00;;;;;15.89;42.24;101892.66;5022206;28;45389;-64
2023/05/25 07:31:16;;;;;;;;;14.25;7.75;;;;;15.92;42.30;101887.28;5020321;28;45489;-64
2023/05/25 07:33:41;;;;;;;;;12.25;12.00;;;;;15.98;42.42;101889.81;5021773;28;46027;-64
2023/05/25 07:36:08;;;;;;;;;10.50;9.50;;;;;16.01;42.23;101888.91;5021105;28;45317;-65
2023/05/25 07:38:34;;;;;;;;;14.25;9.50;;;;;16.07;42.06;101886.13;5021956;28;45186;-64
2023/05/25 07:40:59;;;;;;;;;9.50;8.75;;;;;16.07;42.46;101884.38;5019842;28;45843;-64
2023/05/25 07:43:24;;;;;;;;;9.25;8.00;;;;;16.13;42.42;101880.72;5020397;28;46953;-64
2023/05/25 07:45:50;;;;;;;;;9.00;8.50;;;;;16.18;42.17;101885.94;5019790;28;45626;-64
2023/05/25 07:48:15;;;;;;;;;9.25;8.00;;;;;16.19;41.97;101882.38;5021952;28;45512;-65
2023/05/25 07:50:40;;;;;;;;;6.25;6.25;;;;;16.24;42.37;101889.34;5021446;28;45610;-64
2023/05/25 07:53:06;;;;;;;;;11.25;7.50;;;;;16.27;42.27;101884.88;5021443;28;45237;-64
2023/05/25 07:55:31;;;;;;;;;10.00;10.00;;;;;16.33;42.19;101888.28;5020859;28;45980;-65
2023/05/25 07:57:56;;;;;;;;;7.75;5.75;;;;;16.38;41.83;101897.00;5003849;28;45304;-65
2023/05/25 08:00:22;;;;;;;;;6.50;6.25;;;;;16.42;41.91;101900.47;5021004;28;45417;-65
2023/05/25 08:02:47;;;;;;;;;8.25;6.00;;;;;16.44;42.35;101885.41;5021299;28;47058;-65
2023/05/25 08:05:13;;;;;;;;;9.25;7.00;;;;;16.49;42.06;101888.84;5020005;28;45294;-65
2023/05/25 08:07:39;;;;;;;;;9.25;8.75;;;;;16.55;42.15;101895.78;5020209;28;45235;-64
2023/05/25 08:10:05;;;;;;;;;9.00;8.25;;;;;16.56;42.18;101882.50;5020763;28;45468;-65
2023/05/25 08:12:31;;;;;;;;;6.00;6.00;;;;;16.61;41.93;101893.00;5020949;28;45419;-65
2023/05/25 08:14:57;;;;;;;;;9.50;6.25;;;;;16.67;41.81;101886.72;5020835;28;45309;-65
2023/05/25 08:17:22;;;;;;;;;10.75;8.25;;;;;16.73;41.94;101891.88;5021213;28;45269;-65
2023/05/25 08:19:48;;;;;;;;;9.75;6.25;;;;;16.77;41.97;101896.22;5020949;28;45374;-65
2023/05/25 08:22:13;;;;;;;;;10.00;8.00;;;;;16.82;41.81;101897.00;5026165;28;45286;-65
2023/05/25 08:24:38;;;;;;;;;10.75;8.75;;;;;16.87;41.57;101889.78;5020631;28;45432;-65
2023/05/25 08:27:04;;;;;;;;;10.00;7.00;;;;;16.94;41.91;101889.69;5019694;28;45901;-65
2023/05/25 08:29:30;;;;;;;;;5.75;5.50;;;;;16.99;41.81;101895.75;5021132;28;45610;-65
2023/05/25 08:31:55;;;;;;;;;6.00;4.25;;;;;17.04;41.93;101892.13;5020838;28;45624;-65
2023/05/25 08:34:20;;;;;;;;;11.00;7.50;;;;;17.08;41.65;101882.28;5020702;28;45192;-65
2023/05/25 08:36:46;;;;;;;;;10.25;7.00;;;;;17.14;41.85;101892.75;5020906;28;45290;-65
2023/05/25 08:39:12;;;;;;;;;9.50;5.75;;;;;17.20;41.51;101886.44;5020489;28;45247;-65
2023/05/25 08:41:42;;;;;;;;;6.50;6.00;;;;;17.26;41.64;101888.06;5020402;28;46075;-64
2023/05/25 08:44:07;;;;;;;;;6.75;6.00;;;;;17.30;41.37;101893.25;5019526;28;45321;-65
2023/05/25 08:46:33;;;;;;;;;8.50;4.75;;;;;17.34;41.36;101886.09;5020797;28;45249;-64
2023/05/25 08:49:12;;;;;;;;;8.25;7.25;;;;;17.41;41.46;101901.00;5019465;28;45285;-64
2023/05/25 08:51:41;;;;;;;;;5.50;4.00;;;;;17.45;41.20;101889.34;5020195;28;46688;-64
2023/05/25 08:54:09;;;;;;;;;4.00;3.25;;;;;17.52;41.30;101898.03;5020429;28;45541;-64
2023/05/25 08:56:46;;;;;;;;;5.25;5.25;;;;;17.57;41.46;101893.47;5020391;28;45258;-64
2023/05/25 08:59:33;;;;;;;;;7.25;5.25;;;;;17.64;41.31;101888.91;5020227;28;45250;-64
2023/05/25 09:02:20;;;;;;;;;5.00;5.00;;;;;17.70;41.13;101897.59;5020311;28;46202;-64
2023/05/25 09:04:45;;;;;;;;;4.50;4.50;;;;;17.77;41.41;101892.09;5020296;28;45249;-65
2023/05/25 09:07:11;;;;;;;;;5.75;5.75;;;;;17.83;41.01;101890.16;5020294;28;45388;-65
2023/05/25 09:09:37;;;;;;;;;8.00;6.00;;;;;17.89;41.07;101894.44;5020291;28;45646;-65
2023/05/25 09:12:05;;;;;;;;;7.00;5.25;;;;;17.95;40.97;101898.75;5019505;28;46352;-65
2023/05/25 09:14:32;;;;;;;;;5.75;5.00;;;;;17.99;40.90;101903.09;5019785;28;46574;-65
2023/05/25 09:16:57;;;;;;;;;8.50;6.00;;;;;18.06;40.89;101891.34;5020166;28;45173;-65
2023/05/25 09:19:23;;;;;;;;;5.50;4.50;;;;;18.12;40.92;101891.19;5020259;28;45207;-65
2023/05/25 09:21:48;;;;;;;;;6.00;4.75;;;;;18.19;40.94;101891.91;5023955;28;46058;-65
2023/05/25 09:24:15;;;;;;;;;5.50;5.50;;;;;18.25;40.85;101889.09;5020122;28;45412;-65
2023/05/25 09:26:40;;;;;;;;;9.00;7.25;;;;;18.29;40.54;101889.88;5019931;28;45365;-65
2023/05/25 09:29:05;;;;;;;;;5.25;5.25;;;;;18.38;40.56;101891.38;5020080;28;45312;-65
2023/05/25 09:31:31;;;;;;;;;5.00;5.00;;;;;18.43;40.83;101881.50;5019883;28;46357;-65
2023/05/25 09:33:58;;;;;;;;;9.00;6.00;;;;;18.50;40.61;101880.38;5018601;28;46180;-65
2023/05/25 09:36:25;;;;;;;;;7.00;5.75;;;;;18.57;40.65;101886.41;5019920;28;45278;-65
2023/05/25 09:38:53;;;;;;;;;6.50;5.75;;;;;18.63;40.58;101880.91;5019787;28;45476;-65
2023/05/25 09:41:19;;;;;;;;;8.25;6.00;;;;;18.70;40.24;101878.91;5019582;28;46489;-65
2023/05/25 09:43:46;;;;;;;;;5.75;5.00;;;;;18.76;40.29;101874.25;5019704;28;45404;-65
2023/05/25 09:46:12;;;;;;;;;6.00;4.00;;;;;18.83;40.32;101885.63;5018537;28;45357;-65
2023/05/25 09:48:38;;;;;;;;;5.50;5.50;;;;;18.89;39.97;101884.53;5018425;28;45546;-65
2023/05/25 09:51:05;;;;;;;;;5.00;4.50;;;;;18.96;39.69;101875.47;5018199;28;47117;-65
2023/05/25 09:53:31;;;;;;;;;5.00;5.00;;;;;19.05;40.24;101885.84;5018134;28;45678;-65
2023/05/25 09:55:56;;;;;;;;;8.75;5.75;;;;;19.16;39.99;101891.69;5019539;28;45230;-65
2023/05/25 09:58:25;;;;;;;;;7.00;5.25;;;;;19.23;40.04;101881.72;5019634;28;45429;-65
2023/05/25 10:00:54;;;;;;;;;5.25;5.00;;;;;19.35;39.96;101893.75;5017689;28;46936;-65
2023/05/25 10:03:20;;;;;;;;;6.75;4.50;;;;;19.48;39.59;101889.78;5019475;28;45241;-65
2023/05/25 10:05:47;;;;;;;;;4.50;4.00;;;;;19.61;39.36;101886.72;5019618;28;45183;-65
2023/05/25 10:08:12;;;;;;;;;2.75;2.75;;;;;19.74;39.32;101895.16;5017918;28;45559;-65
2023/05/25 10:10:41;;;;;;;;;5.50;4.25;;;;;19.89;39.40;101901.78;5018943;28;46443;-65
2023/05/25 10:13:07;;;;;;;;;7.00;5.25;;;;;20.07;39.51;101898.44;5019519;28;45387;-65
2023/05/25 10:15:35;;;;;;;;;5.25;5.25;;;;;20.27;39.88;101902.19;5019170;28;45309;-65
2023/05/25 10:18:01;;;;;;;;;6.75;6.75;;;;;20.52;39.45;101895.94;5019486;28;45391;-65
2023/05/25 10:20:26;;;;;;;;;7.75;4.75;;;;;20.77;39.70;101894.09;5017722;28;47625;-65
2023/05/25 10:23:08;;;;;;;;;7.00;5.00;;;;;21.15;39.51;101892.66;5024588;28;45178;-65
2023/05/25 10:25:38;;;;;;;;;5.50;4.50;;;;;21.54;40.18;101900.81;5021330;28;45363;-66
2023/05/25 10:28:18;;;;;;;;;4.00;4.00;;;;;21.91;40.37;101885.91;5021595;28;46090;-66
2023/05/25 10:30:45;;;;;;;;;6.00;4.25;;;;;22.45;39.95;101904.06;5022673;28;46220;-65
2023/05/25 10:33:11;;;;;;;;;11.75;6.00;;;;;22.94;40.06;101900.00;5022389;28;45383;-65
2023/05/25 10:35:38;;;;;;;;;8.50;5.75;;;;;23.49;40.27;101891.09;5022778;28;45302;-65
2023/05/25 10:38:04;;;;;;;;;6.75;5.00;;;;;24.03;40.24;101896.38;5021324;28;45613;-65
2023/05/25 10:40:31;;;;;;;;;5.50;4.50;;;;;24.62;40.41;101886.03;5022092;28;47064;-66
2023/05/25 10:42:57;;;;;;;;;9.00;5.25;;;;;25.24;40.07;101895.13;5004653;28;45398;-66
2023/05/25 10:45:23;;;;;;;;;7.25;5.25;;;;;25.81;39.95;101894.50;5022650;28;45389;-65
2023/05/25 10:47:49;;;;;;;;;6.50;6.50;;;;;26.41;39.81;101898.91;5021131;28;45684;-66
2023/05/25 10:50:21;;;;;;;;;5.25;4.75;;;;;27.04;39.78;101902.09;5021134;28;47340;-65
2023/05/25 10:52:57;;;;;;;;;4.75;4.50;;;;;27.66;39.83;101892.59;5022201;28;45407;-65
2023/05/25 10:55:26;;;;;;;;;5.50;5.50;;;;;28.20;39.52;101896.06;5022146;28;45272;-66
2023/05/25 10:58:07;;;;;;;;;7.25;5.25;;;;;28.83;39.51;101896.09;5022115;28;45562;-66
2023/05/25 11:00:32;;;;;;;;;4.25;4.25;;;;;29.36;39.27;101909.31;5021806;28;45555;-66
2023/05/25 11:02:57;;;;;;;;;4.25;4.25;;;;;29.84;38.94;101909.22;5022357;28;45310;-66
2023/05/25 11:05:29;;;;;;;;;8.00;5.25;;;;;30.38;38.67;101900.56;5020969;28;45538;-65
2023/05/25 11:07:55;;;;;;;;;6.00;5.00;;;;;30.85;38.98;101906.69;5022432;28;45312;-65
2023/05/25 11:10:49;;;;;;;;;4.75;4.75;;;;;31.35;38.80;101903.47;5020302;28;47154;-65
2023/05/25 11:13:32;;;;;;;;;4.25;4.25;;;;;31.85;37.91;101904.69;5021748;28;45376;-66